createdAt,value
2023-01-19T06:28:24.391Z,34
2023-01-19T06:30:23.925Z,38
2023-01-19T06:32:23.941Z,43
2023-01-19T06:34:24.047Z,44
2023-01-19T06:36:24.145Z,40
2023-01-19T06:38:24.267Z,36
2023-01-19T06:40:24.366Z,48
2023-01-19T06:42:24.462Z,39
2023-01-19T06:44:24.688Z,37
2023-01-19T06:46:24.706Z,36
2023-01-19T06:48:24.802Z,35
2023-01-19T06:50:24.907Z,49
2023-01-19T06:52:25.011Z,42
2023-01-19T06:54:25.095Z,45
2023-01-19T06:56:25.224Z,37
2023-01-19T06:58:25.312Z,46
2023-01-19T07:00:25.493Z,37
2023-01-19T07:02:26.570Z,40
2023-01-19T07:04:25.811Z,45
2023-01-19T07:06:25.789Z,37
2023-01-19T07:08:25.905Z,46
2023-01-19T07:10:26.021Z,44
2023-01-19T07:12:26.074Z,42
2023-01-19T07:14:26.194Z,45
2023-01-19T07:16:26.326Z,61
2023-01-19T07:18:26.365Z,111
2023-01-19T07:20:26.480Z,228
2023-01-19T07:22:26.610Z,281
2023-01-19T07:24:26.667Z,268
2023-01-19T07:26:26.760Z,296
2023-01-19T07:28:26.885Z,208
2023-01-19T07:30:27.060Z,162
2023-01-19T07:32:27.071Z,75
2023-01-19T07:34:27.193Z,57
2023-01-19T07:36:27.295Z,51
2023-01-19T07:38:27.375Z,55
2023-01-19T07:40:27.473Z,52
2023-01-19T07:42:27.581Z,51
2023-01-19T07:44:27.695Z,97
2023-01-19T07:46:27.836Z,80
2023-01-19T07:48:27.844Z,74
2023-01-19T07:50:27.942Z,58
2023-01-19T07:52:28.046Z,51
2023-01-19T07:54:28.151Z,49
2023-01-19T07:56:28.242Z,63
2023-01-19T07:58:28.356Z,48
2023-01-19T08:00:28.465Z,51
2023-01-19T08:02:28.538Z,54
2023-01-19T08:04:28.649Z,55
2023-01-19T08:06:28.742Z,53
2023-01-19T08:08:28.819Z,52
2023-01-19T08:10:28.931Z,57
2023-01-19T08:12:29.039Z,53
2023-01-19T08:14:29.152Z,50
2023-01-19T08:16:29.191Z,51
2023-01-19T08:18:29.261Z,50
2023-01-19T08:20:29.361Z,52
2023-01-19T08:22:29.466Z,51
2023-01-19T08:24:29.550Z,44
2023-01-19T08:26:29.778Z,31
2023-01-19T08:28:29.727Z,32
2023-01-19T08:30:29.788Z,36
2023-01-19T08:32:29.975Z,36
2023-01-19T08:34:29.981Z,35
2023-01-19T08:36:30.073Z,33
2023-01-19T08:38:30.193Z,35
2023-01-19T08:40:30.263Z,35
2023-01-19T08:42:30.316Z,37
2023-01-19T08:44:30.572Z,37
2023-01-19T08:46:30.562Z,36
2023-01-19T08:48:30.622Z,34
2023-01-19T08:50:30.695Z,34
2023-01-19T08:52:30.786Z,31
2023-01-19T08:57:01.146Z,23
2023-01-19T08:59:09.235Z,22
2023-01-19T09:01:03.116Z,24
2023-01-19T09:03:01.666Z,21
2023-01-19T09:05:01.476Z,21
2023-01-19T09:07:01.599Z,22
2023-01-19T09:09:01.678Z,23
2023-01-19T09:11:01.866Z,22
2023-01-19T09:13:01.924Z,20
2023-01-19T09:15:02.025Z,17
2023-01-19T09:17:02.188Z,23
2023-01-19T09:19:02.224Z,21
2023-01-19T09:21:02.325Z,16
2023-01-19T09:23:02.445Z,16
2023-01-19T09:25:02.641Z,24
2023-01-19T09:27:02.693Z,22
2023-01-19T09:29:02.817Z,18
2023-01-19T09:31:03.000Z,17
2023-01-19T09:33:03.037Z,12
2023-01-19T09:35:03.601Z,14
2023-01-19T09:37:03.254Z,17
2023-01-19T09:39:03.384Z,21
2023-01-19T09:41:03.493Z,27
2023-01-19T09:43:03.573Z,26
2023-01-19T09:45:03.749Z,16
2023-01-19T09:47:03.808Z,28
2023-01-19T09:49:03.886Z,20
2023-01-19T09:51:03.995Z,16
2023-01-19T09:53:04.106Z,13
2023-01-19T09:55:04.208Z,10
2023-01-19T09:57:04.306Z,8
2023-01-19T09:59:04.378Z,8
2023-01-19T10:01:04.643Z,9
2023-01-19T10:03:04.726Z,6
2023-01-19T10:05:04.684Z,6
2023-01-19T10:07:04.790Z,5
2023-01-19T10:09:04.960Z,6
2023-01-19T10:11:04.976Z,5
2023-01-19T10:13:05.171Z,6
2023-01-19T10:15:05.197Z,6
2023-01-19T10:17:05.312Z,7
2023-01-19T10:19:05.415Z,9
2023-01-19T10:21:05.787Z,7
2023-01-19T10:23:05.595Z,9
2023-01-19T10:25:05.663Z,30
2023-01-19T10:27:05.770Z,120
2023-01-19T10:29:05.880Z,109
2023-01-19T10:31:06.063Z,119
2023-01-19T10:33:06.061Z,74
2023-01-19T10:35:06.176Z,50
2023-01-19T10:37:06.281Z,26
2023-01-19T10:39:06.371Z,25
2023-01-19T10:41:06.495Z,21
2023-01-19T10:43:06.606Z,15
2023-01-19T10:45:06.675Z,20
2023-01-19T10:47:06.743Z,25
2023-01-19T10:49:06.827Z,27
2023-01-19T10:51:06.928Z,30
2023-01-19T10:53:07.076Z,37
2023-01-19T10:55:07.121Z,23
2023-01-19T10:57:07.274Z,22
2023-01-19T10:59:07.280Z,20
2023-01-19T11:01:07.506Z,23
2023-01-19T11:03:07.583Z,19
2023-01-19T11:05:07.576Z,22
2023-01-19T11:07:07.842Z,20
2023-01-19T11:09:07.780Z,22
2023-01-19T11:11:07.870Z,35
2023-01-19T11:13:07.967Z,19
2023-01-19T11:15:08.070Z,27
2023-01-19T11:17:08.154Z,17
2023-01-19T11:19:08.241Z,12
2023-01-19T11:21:08.336Z,10
2023-01-19T11:23:08.464Z,13
2023-01-19T11:25:08.525Z,7
2023-01-19T11:27:08.659Z,8
2023-01-19T11:29:08.734Z,9
2023-01-19T11:31:08.900Z,7
2023-01-19T11:35:08.981Z,5
2023-01-19T11:37:09.076Z,11
2023-01-19T11:39:09.173Z,14
2023-01-19T11:41:09.235Z,17
2023-01-19T11:43:09.312Z,19
2023-01-19T11:45:09.402Z,17
2023-01-19T11:47:09.490Z,16
2023-01-19T11:49:09.609Z,21
2023-01-19T11:51:09.666Z,24
2023-01-19T11:53:09.759Z,18
2023-01-19T11:55:09.873Z,19
2023-01-19T11:57:09.948Z,19
2023-01-19T11:59:10.035Z,21
2023-01-19T12:01:10.133Z,21
2023-01-19T12:03:10.269Z,25
2023-01-19T12:05:10.329Z,23
2023-01-19T12:07:10.427Z,31
2023-01-19T12:09:10.557Z,24
2023-01-19T12:11:10.600Z,24
2023-01-19T12:13:10.694Z,20
2023-01-19T12:15:10.790Z,30
2023-01-19T12:17:10.852Z,28
2023-01-19T12:19:10.953Z,39
2023-01-19T12:21:11.058Z,45
2023-01-19T12:23:11.171Z,50
2023-01-19T12:25:11.237Z,57
2023-01-19T12:27:11.335Z,35
2023-01-19T12:29:11.397Z,33
2023-01-19T12:31:11.662Z,36
2023-01-19T12:33:11.775Z,26
2023-01-19T12:35:11.649Z,24
2023-01-19T12:37:13.670Z,25
2023-01-19T12:39:11.817Z,29
2023-01-19T12:41:11.919Z,23
2023-01-19T12:43:11.964Z,25
2023-01-19T12:45:12.087Z,20
2023-01-19T12:47:12.144Z,22
2023-01-19T12:49:12.244Z,26
2023-01-19T12:51:42.349Z,27
2023-01-19T12:53:42.469Z,19
2023-01-19T12:55:42.577Z,13
2023-01-19T12:57:42.675Z,21
2023-01-19T12:59:42.769Z,23
2023-01-19T13:01:43.048Z,19
2023-01-19T13:03:43.063Z,22
2023-01-19T13:05:43.124Z,21
2023-01-19T13:07:43.258Z,22
2023-01-19T13:09:43.422Z,11
2023-01-19T13:11:48.431Z,21
2023-01-19T13:13:43.552Z,22
2023-01-19T13:15:43.645Z,20
2023-01-19T13:17:43.755Z,23
2023-01-19T13:19:43.842Z,21
2023-01-19T13:21:44.836Z,22
2023-01-19T13:23:44.084Z,21
2023-01-19T13:25:44.202Z,19
2023-01-19T13:27:44.290Z,19
2023-01-19T13:29:44.414Z,23
2023-01-19T13:31:44.723Z,27
2023-01-19T13:33:44.603Z,24
2023-01-19T13:35:44.696Z,23
2023-01-19T13:37:44.842Z,29
2023-01-19T13:39:44.927Z,27
2023-01-19T13:41:45.259Z,32
2023-01-19T13:43:45.247Z,41
2023-01-19T13:45:45.304Z,41
2023-01-19T13:47:45.375Z,49
2023-01-19T13:49:45.476Z,47
2023-01-19T13:51:45.569Z,47
2023-01-19T13:53:45.681Z,40
2023-01-19T13:55:45.804Z,29
2023-01-19T13:57:45.877Z,31
2023-01-19T13:59:46.015Z,39
2023-01-19T14:01:46.248Z,38
2023-01-19T14:03:46.195Z,31
2023-01-19T14:05:46.415Z,32
2023-01-19T14:07:46.558Z,36
2023-01-19T14:09:46.566Z,30
2023-01-19T14:11:46.641Z,34
2023-01-19T14:13:46.798Z,48
2023-01-19T14:15:46.934Z,48
2023-01-19T14:17:49.850Z,42
2023-01-19T14:19:47.083Z,100
2023-01-19T14:21:47.167Z,94
2023-01-19T14:23:47.276Z,84
2023-01-19T14:25:47.369Z,76
2023-01-19T14:27:47.467Z,75
2023-01-19T14:29:47.578Z,70
2023-01-19T14:31:47.669Z,69
2023-01-19T14:33:47.759Z,66
2023-01-19T14:35:47.857Z,49
2023-01-19T14:37:47.967Z,49
2023-01-19T14:39:48.107Z,56
2023-01-19T14:41:48.247Z,59
2023-01-19T14:43:48.300Z,39
2023-01-19T14:45:48.400Z,42
2023-01-19T14:47:48.505Z,43
2023-01-19T14:49:48.586Z,41
2023-01-19T14:51:48.690Z,41
2023-01-19T14:53:48.803Z,41
2023-01-19T14:55:48.931Z,30
2023-01-19T14:57:49.019Z,35
2023-01-19T14:59:49.133Z,34
2023-01-19T15:01:49.341Z,34
2023-01-19T15:03:49.341Z,31
2023-01-19T15:05:49.575Z,35
2023-01-19T15:07:49.522Z,36
2023-01-19T15:09:49.628Z,39
2023-01-19T15:11:49.746Z,53
2023-01-19T15:13:49.783Z,40
2023-01-19T15:15:49.968Z,41
2023-01-19T15:17:50.004Z,66
2023-01-19T15:19:50.088Z,44
2023-01-19T15:21:50.215Z,48
2023-01-19T15:23:50.295Z,39
2023-01-19T15:25:50.358Z,46
2023-01-19T15:27:50.453Z,45
2023-01-19T15:29:50.561Z,42
2023-01-19T15:31:50.736Z,37
2023-01-19T15:33:50.760Z,52
2023-01-19T15:35:50.911Z,51
2023-01-19T15:37:50.974Z,46
2023-01-19T15:39:51.070Z,50
2023-01-19T15:41:51.211Z,47
2023-01-19T15:43:51.267Z,68
2023-01-19T15:45:51.464Z,52
2023-01-19T15:47:51.486Z,46
2023-01-19T15:49:51.545Z,41
2023-01-19T15:51:51.765Z,54
2023-01-19T15:55:51.880Z,52
2023-01-19T15:57:51.972Z,45
2023-01-19T15:59:52.079Z,42
2023-01-19T16:01:52.332Z,43
2023-01-19T16:03:52.275Z,41
2023-01-19T16:05:52.382Z,50
2023-01-19T16:09:52.516Z,61
2023-01-19T16:11:52.610Z,56
2023-01-19T16:13:52.739Z,62
2023-01-19T16:15:52.839Z,63
2023-01-19T16:17:52.923Z,56
2023-01-19T16:19:53.037Z,55
2023-01-19T16:21:53.076Z,60
2023-01-19T16:23:53.121Z,96
2023-01-19T16:25:53.239Z,163
2023-01-19T16:27:53.333Z,156
2023-01-19T16:29:53.445Z,129
2023-01-19T16:31:53.617Z,109
2023-01-19T16:33:53.602Z,89
2023-01-19T16:35:53.717Z,90
2023-01-19T16:37:53.826Z,79
2023-01-19T16:39:53.879Z,77
2023-01-19T16:41:54.026Z,81
2023-01-19T16:43:54.070Z,82
2023-01-19T16:45:54.203Z,84
2023-01-19T16:47:54.274Z,87
2023-01-19T16:49:54.373Z,81
2023-01-19T16:51:54.419Z,85
2023-01-19T16:53:54.501Z,103
2023-01-19T16:55:54.599Z,118
2023-01-19T16:57:54.698Z,122
2023-01-19T16:59:54.792Z,105
2023-01-19T17:01:55.022Z,90
2023-01-19T17:03:54.990Z,94
2023-01-19T17:05:55.083Z,93
2023-01-19T17:07:55.172Z,79
2023-01-19T17:09:55.268Z,75
2023-01-19T17:11:55.374Z,75
2023-01-19T17:13:55.447Z,72
2023-01-19T17:15:55.548Z,85
2023-01-19T17:17:55.607Z,54
2023-01-19T17:19:55.687Z,47
2023-01-19T17:21:55.799Z,34
2023-01-19T17:23:55.927Z,37
2023-01-19T17:25:55.948Z,39
2023-01-19T17:27:56.045Z,38
2023-01-19T17:29:56.137Z,62
2023-01-19T17:31:56.206Z,63
2023-01-19T17:33:56.282Z,71
2023-01-19T17:36:26.436Z,71
2023-01-19T17:38:26.535Z,66
2023-01-19T17:40:26.723Z,65
2023-01-19T17:42:26.774Z,59
2023-01-19T17:44:26.919Z,54
2023-01-19T17:46:27.081Z,47
2023-01-19T17:48:27.266Z,57
2023-01-19T17:50:27.266Z,72
2023-01-19T17:52:27.368Z,62
2023-01-19T17:54:27.507Z,62
2023-01-19T17:56:27.622Z,64
2023-01-19T17:58:27.727Z,69
2023-01-19T18:00:27.902Z,71
2023-01-19T18:02:27.980Z,72
2023-01-19T18:04:28.107Z,73
2023-01-19T18:06:28.229Z,65
2023-01-19T18:08:28.316Z,69
2023-01-19T18:10:28.479Z,62
2023-01-19T18:12:28.541Z,63
2023-01-19T18:14:28.652Z,60
2023-01-19T18:16:28.783Z,50
2023-01-19T18:18:28.918Z,42
2023-01-19T18:20:31.506Z,40
2023-01-19T18:22:29.112Z,47
2023-01-19T18:24:29.222Z,48
2023-01-19T18:26:29.435Z,47
2023-01-19T18:28:29.432Z,68
2023-01-19T18:30:29.567Z,82
2023-01-19T18:32:29.657Z,79
2023-01-19T18:34:29.810Z,72
2023-01-19T18:36:29.877Z,79
2023-01-19T18:38:29.974Z,107
2023-01-19T18:40:30.112Z,125
2023-01-19T18:42:30.222Z,118
2023-01-19T18:44:30.313Z,103
2023-01-19T18:46:30.514Z,102
2023-01-19T18:48:30.645Z,94
2023-01-19T18:50:30.728Z,87
2023-01-19T18:52:30.738Z,80
2023-01-19T18:54:30.860Z,78
2023-01-19T18:56:30.976Z,79
2023-01-19T18:58:31.092Z,75
2023-01-19T19:00:31.217Z,83
2023-01-19T19:02:31.288Z,74
2023-01-19T19:04:31.391Z,89
2023-01-19T19:06:31.523Z,83
2023-01-19T19:08:31.600Z,76
2023-01-19T19:10:31.858Z,72
2023-01-19T19:12:31.828Z,78
2023-01-19T19:14:31.955Z,62
2023-01-19T19:16:35.127Z,47
2023-01-19T19:18:32.209Z,46
2023-01-19T19:22:32.475Z,45
2023-01-19T19:24:32.474Z,47
2023-01-19T19:26:32.567Z,43
2023-01-19T19:28:32.692Z,33
2023-01-19T19:30:32.825Z,31
2023-01-19T19:32:32.930Z,28
2023-01-19T19:34:33.013Z,34
2023-01-19T19:36:33.187Z,43
2023-01-19T19:38:33.192Z,51
2023-01-19T19:40:33.333Z,64
2023-01-19T19:42:33.408Z,59
2023-01-19T19:44:33.498Z,54
2023-01-19T19:46:33.641Z,53
2023-01-19T19:48:33.742Z,45
2023-01-19T19:50:33.873Z,42
2023-01-19T19:52:33.927Z,38
2023-01-19T19:56:31.277Z,33
2023-01-19T19:58:30.886Z,32
2023-01-19T20:00:31.003Z,35
2023-01-19T20:02:31.057Z,34
2023-01-19T20:04:31.182Z,32
2023-01-19T20:06:31.270Z,35
2023-01-19T20:08:31.375Z,34
2023-01-19T20:10:31.512Z,41
2023-01-19T20:12:31.590Z,35
2023-01-19T20:14:31.710Z,35
2023-01-19T20:16:31.840Z,36
2023-01-19T20:18:31.993Z,38
2023-01-19T20:20:32.127Z,44
2023-01-19T20:22:32.213Z,52
2023-01-19T20:24:32.316Z,52
2023-01-19T20:26:32.396Z,68
2023-01-19T20:28:32.525Z,67
2023-01-19T20:30:32.759Z,67
2023-01-19T20:32:33.004Z,59
2023-01-19T20:34:33.527Z,49
2023-01-19T20:36:32.909Z,62
2023-01-19T20:38:32.990Z,52
2023-01-19T20:40:33.079Z,54
2023-01-19T20:42:33.184Z,55
2023-01-19T20:44:33.292Z,53
2023-01-19T20:46:33.371Z,61
2023-01-19T20:48:33.449Z,66
2023-01-19T20:50:33.569Z,65
2023-01-19T20:52:33.674Z,59
2023-01-19T20:54:33.800Z,36
2023-01-19T20:56:33.852Z,39
2023-01-19T20:58:33.975Z,35
2023-01-19T21:00:34.199Z,41
2023-01-19T21:02:34.218Z,36
2023-01-19T21:04:34.244Z,28
2023-01-19T21:06:34.352Z,22
2023-01-19T21:08:34.429Z,23
2023-01-19T21:12:34.630Z,24
2023-01-19T21:14:34.733Z,26
2023-01-19T21:16:34.864Z,30
2023-01-19T21:18:34.963Z,29
2023-01-19T21:20:35.002Z,26
2023-01-19T21:22:35.061Z,28
2023-01-19T21:24:35.185Z,30
2023-01-19T21:26:35.254Z,31
2023-01-19T21:28:35.369Z,28
2023-01-19T21:30:35.475Z,30
2023-01-19T21:32:35.530Z,46
2023-01-19T21:34:35.689Z,26
2023-01-19T21:36:35.778Z,25
2023-01-19T21:38:35.823Z,25
2023-01-19T21:40:35.891Z,25
2023-01-19T21:42:36.024Z,26
2023-01-19T21:44:36.110Z,23
2023-01-19T21:46:36.151Z,19
2023-01-19T21:50:36.287Z,18
2023-01-19T21:52:36.376Z,15
2023-01-19T21:54:36.546Z,17
2023-01-19T21:56:36.622Z,20
2023-01-19T21:58:36.678Z,20
2023-01-19T22:00:36.776Z,20
2023-01-19T22:02:38.808Z,22
2023-01-19T22:04:36.938Z,24
2023-01-19T22:06:37.016Z,26
2023-01-19T22:08:37.106Z,25
2023-01-19T22:11:07.268Z,26
2023-01-19T22:13:07.507Z,28
2023-01-19T22:17:07.609Z,25
2023-01-19T22:19:07.745Z,25
2023-01-19T22:21:07.856Z,26
2023-01-19T22:23:07.967Z,26
2023-01-19T22:25:08.054Z,27
2023-01-19T22:27:08.181Z,27
2023-01-19T22:29:08.350Z,25
2023-01-19T22:31:08.551Z,23
2023-01-19T22:33:08.519Z,23
2023-01-19T22:35:08.619Z,19
2023-01-19T22:37:08.893Z,19
2023-01-19T22:39:08.880Z,17
2023-01-19T22:41:08.958Z,15
2023-01-19T22:43:09.076Z,14
2023-01-19T22:45:09.157Z,15
2023-01-19T22:47:09.307Z,14
2023-01-19T22:49:09.400Z,16
2023-01-19T22:51:09.533Z,15
2023-01-19T22:53:09.622Z,14
2023-01-19T22:55:09.756Z,15
2023-01-19T22:57:09.852Z,16
2023-01-19T22:59:09.993Z,18
2023-01-19T23:01:10.348Z,17
2023-01-19T23:03:10.219Z,18
2023-01-19T23:05:10.444Z,21
2023-01-19T23:07:10.409Z,18
2023-01-19T23:09:10.563Z,30
2023-01-19T23:11:10.632Z,31
2023-01-19T23:13:10.749Z,34
2023-01-19T23:15:11.301Z,33
2023-01-19T23:17:10.993Z,32
2023-01-19T23:19:11.085Z,33
2023-01-19T23:21:11.213Z,33
2023-01-19T23:23:11.318Z,43
2023-01-19T23:25:11.620Z,34
2023-01-19T23:27:11.495Z,29
2023-01-19T23:29:11.647Z,27
2023-01-19T23:31:11.894Z,29
2023-01-19T23:33:11.837Z,32
2023-01-19T23:35:12.301Z,35
2023-01-19T23:37:12.061Z,34
2023-01-19T23:39:12.184Z,34
2023-01-19T23:41:12.289Z,30
2023-01-19T23:43:12.400Z,33
2023-01-19T23:45:12.824Z,30
2023-01-19T23:47:12.627Z,30
2023-01-19T23:49:12.705Z,29
2023-01-19T23:51:12.853Z,30
2023-01-19T23:53:12.928Z,28
2023-01-19T23:55:13.355Z,24
2023-01-19T23:57:13.150Z,24
2023-01-19T23:59:13.242Z,26
